createdAt,value
2022-12-25T00:09:40.678Z,4
2022-12-25T00:29:42.007Z,4.3
2022-12-25T00:39:42.265Z,4.3
2022-12-25T00:49:42.824Z,4.5
2022-12-25T00:50:04.706Z,4.5
2022-12-25T00:59:49.400Z,4.6
2022-12-25T01:09:50.437Z,4.8
2022-12-25T01:19:51.367Z,4.9
2022-12-25T01:29:51.449Z,5
2022-12-25T01:39:51.983Z,5.2
2022-12-25T01:49:52.760Z,5.3
2022-12-25T01:59:52.831Z,5.5
2022-12-25T02:09:53.872Z,5.6
2022-12-25T02:19:54.526Z,5.7
2022-12-25T02:29:54.993Z,5.8
2022-12-25T02:39:55.644Z,5.9
2022-12-25T02:49:56.396Z,6
2022-12-25T02:59:56.939Z,6.2
2022-12-25T03:09:57.216Z,6.4
2022-12-25T03:19:57.731Z,6.6
2022-12-25T03:29:58.205Z,7.1
2022-12-25T03:39:58.667Z,7.6
2022-12-25T03:49:59.440Z,8
2022-12-25T04:00:00.355Z,8.2
2022-12-25T04:10:00.579Z,8.4
2022-12-25T04:30:01.457Z,8.4
2022-12-25T04:40:01.989Z,8.3
2022-12-25T04:50:02.998Z,8.3
2022-12-25T05:00:03.875Z,8.3
2022-12-25T05:10:04.489Z,8.1
2022-12-25T05:20:05.543Z,7.8
2022-12-25T05:30:06.039Z,7.4
2022-12-25T05:40:07.081Z,7.1
2022-12-25T05:50:07.259Z,6.8
2022-12-25T06:00:07.919Z,6.6
2022-12-25T06:10:08.550Z,6.5
2022-12-25T06:20:09.342Z,6.5
2022-12-25T06:30:10.285Z,6.4
2022-12-25T06:40:11.377Z,6.3
2022-12-25T06:50:11.653Z,6.2
2022-12-25T07:00:12.240Z,6.1
2022-12-25T07:10:13.220Z,6
2022-12-25T07:20:13.846Z,6
2022-12-25T07:30:14.678Z,5.9
2022-12-25T07:40:15.192Z,5.9
2022-12-25T08:00:16.969Z,6
2022-12-25T08:10:17.651Z,6
2022-12-25T08:20:18.380Z,6.1
2022-12-25T08:30:18.843Z,6.2
2022-12-25T08:40:19.937Z,6.4
2022-12-25T08:50:20.081Z,6.4
2022-12-25T09:00:20.794Z,6.4
2022-12-25T09:10:21.790Z,6.5
2022-12-25T09:20:22.038Z,6.6
2022-12-25T09:30:22.214Z,6.7
2022-12-25T09:40:22.725Z,6.8
2022-12-25T09:50:23.539Z,6.9
2022-12-25T10:00:23.942Z,7.1
2022-12-25T10:10:24.007Z,7.2
2022-12-25T10:20:24.566Z,7.3
2022-12-25T10:30:25.554Z,7.4
2022-12-25T10:40:25.968Z,7.6
2022-12-25T10:50:26.616Z,7.7
2022-12-25T11:00:27.367Z,7.8
2022-12-25T11:10:28.113Z,7.9
2022-12-25T11:20:28.491Z,8.1
2022-12-25T11:30:28.803Z,8.2
2022-12-25T11:40:29.710Z,8.2
2022-12-25T11:50:30.280Z,8.3
2022-12-25T12:00:30.654Z,8.4
2022-12-25T12:10:31.370Z,8.5
2022-12-25T12:20:31.831Z,8.5
2022-12-25T12:30:32.801Z,8.5
2022-12-25T12:40:33.338Z,8.5
2022-12-25T12:50:33.982Z,8.6
2022-12-25T13:00:34.656Z,8.6
2022-12-25T13:10:35.358Z,8.6
2022-12-25T13:20:35.714Z,8.6
2022-12-25T13:30:36.784Z,8.6
2022-12-25T13:40:37.495Z,8.6
2022-12-25T13:50:38.342Z,8.6
2022-12-25T14:00:38.807Z,8.6
2022-12-25T14:10:39.624Z,8.7
2022-12-25T14:20:39.903Z,8.7
2022-12-25T14:30:40.694Z,8.6
2022-12-25T14:40:41.346Z,8.7
2022-12-25T14:50:41.938Z,8.7
2022-12-25T15:00:42.160Z,8.7
2022-12-25T15:11:00.847Z,8.8
2022-12-25T15:20:43.148Z,8.8
2022-12-25T15:30:44.059Z,8.8
2022-12-25T15:40:44.499Z,8.8
2022-12-25T15:50:44.587Z,8.8
2022-12-25T16:00:45.601Z,8.8
2022-12-25T16:10:45.692Z,8.7
2022-12-25T16:20:45.901Z,8.7
2022-12-25T16:30:46.826Z,8.7
2022-12-25T16:40:47.085Z,8.7
2022-12-25T17:00:49.553Z,8.8
2022-12-25T17:10:48.685Z,8.8
2022-12-25T17:20:49.059Z,8.9
2022-12-25T17:30:49.666Z,8.9
2022-12-25T17:40:50.630Z,8.8
2022-12-25T17:50:50.858Z,8.8
2022-12-25T18:00:51.499Z,8.9
2022-12-25T18:10:52.349Z,8.9
2022-12-25T18:20:53.178Z,8.9
2022-12-25T18:30:53.864Z,8.9
2022-12-25T18:40:54.551Z,9.1
2022-12-25T19:00:56.660Z,10
2022-12-25T19:10:56.978Z,10.1
2022-12-25T19:20:57.690Z,10.2
2022-12-25T19:30:57.873Z,10.3
2022-12-25T19:40:58.732Z,10.5
2022-12-25T19:50:59.480Z,10.5
2022-12-25T20:00:59.820Z,10.5
2022-12-25T20:11:00.435Z,10.6
2022-12-25T20:21:00.608Z,10.6
2022-12-25T20:31:01.556Z,10.6
